RPLI

Details ICAO RPLI (LAO)
Name LAOAG INTL
Region Philippines
Timezone Asia/Manila (UTC+8.0)
Plans Departing 38
Arriving 40
Stats Elevation 25 ft / 8 m (AMSL)
Location 18.176144° 120.531104°
Runways 1
Magnetic Variation 2.912° W
Sunrise 2018-06-17 21:23:40 UTC / 2018-06-18 05:23:40 Local
Sunset 2018-06-18 10:36:44 UTC / 2018-06-18 18:36:44 Local
Advertisement - Login to hide

Runways

ID Width Length Bearing (true) Bearing (mag) Surface Threshold Offset Overrun Length
01 148 ft / 45 m 9,165 ft / 2,793 m 5.37° 8.28° Concrete 1,181 ft / 360 m 1,200 ft / 366 m
19 148 ft / 45 m 9,165 ft / 2,793 m 185.37° 188.28° Concrete 0 ft / 0 m 0 ft / 0 m

Map

Weather


0- 5 10 15 20 25 30 35+ Temperature / ° C

Clouds and Precipitation
Forecast for 2018-06-18 12:00 UTC. Updated 5 hours ago

Ground ~20,000 ft ~40,000 ft Winds

METAR

Not found

TAF

TAF RPLI 181100Z 1812/1912 20010KT 9999 FEW019 BKN100 TEMPO 1812/1818 8000 -SHRA SCT019 OVC100

Frequencies

Tower 118.10 MHz TWR
Approach 122.30 MHz APP
Warning: Do not use this data for real-world aviation or navigation. No guarantee of current accuracy is given.